Time;durP1;ratioP1;P1;durP2;ratioP2;P2;SDS_P1;SDS_P2;PMS_P1;PMS_P2;Temp;Humidity;BMP_temperature;BMP_pressure;BME280_temperature;BME280_humidity;BME280_pressure;Samples;Min_cycle;Max_cycle;Signal;HPM_P1;HPM_P2
2022/09/26 00:00:08;;;;;;;58.70;22.15;;;19.20;99.90;;;19.09;67.93;98042.41;5092521;28;20585;-77
2022/09/26 00:02:54;;;;;;;49.92;22.70;;;19.20;99.90;;;19.11;67.60;98050.31;5107802;27;20422;-77
2022/09/26 00:05:20;;;;;;;51.70;23.10;;;19.20;99.90;;;19.13;68.53;98042.50;5105118;27;20044;-77
2022/09/26 00:07:47;;;;;;;54.08;23.90;;;19.20;99.90;;;19.12;68.72;98046.44;5081676;27;20135;-77
2022/09/26 00:10:13;;;;;;;61.13;25.33;;;19.20;99.90;;;19.07;69.15;98037.25;5063277;27;20066;-77
2022/09/26 00:12:38;;;;;;;49.45;21.40;;;19.20;99.90;;;19.05;68.47;98038.75;5072773;28;20168;-77
2022/09/26 00:15:06;;;;;;;48.47;22.25;;;19.20;99.90;;;19.08;68.12;98035.31;5092881;27;20118;-78
2022/09/26 00:17:32;;;;;;;47.35;22.30;;;19.20;99.90;;;19.10;67.86;98024.78;5106899;27;20035;-78
2022/09/26 00:19:57;;;;;;;43.67;20.30;;;19.20;99.90;;;19.06;67.73;98027.44;5074360;27;20074;-78
2022/09/26 00:22:24;;;;;;;44.88;21.95;;;19.20;99.90;;;19.07;68.49;98022.72;5077883;28;20028;-78
2022/09/26 00:24:50;;;;;;;53.40;23.08;;;19.20;99.90;;;19.08;69.14;98019.63;5059552;27;20520;-78
2022/09/26 00:27:18;;;;;;;50.45;22.45;;;19.20;99.90;;;19.07;68.72;98017.22;5062354;27;20097;-78
2022/09/26 00:29:44;;;;;;;55.83;21.23;;;19.20;99.90;;;19.06;68.08;98010.13;5077631;28;20071;-78
2022/09/26 00:32:10;;;;;;;46.03;21.10;;;19.20;99.90;;;19.04;68.31;98018.72;5077404;27;20047;-78
2022/09/26 00:34:36;;;;;;;51.58;21.02;;;19.10;99.90;;;19.06;68.11;98021.13;5075510;28;20677;-77
2022/09/26 00:37:02;;;;;;;42.30;19.48;;;19.10;99.90;;;19.02;68.66;98007.28;5112925;27;20123;-77
2022/09/26 00:39:28;;;;;;;57.22;21.63;;;19.10;99.90;;;19.07;69.28;98011.72;5091112;28;20050;-77
2022/09/26 00:41:54;;;;;;;52.70;22.58;;;19.20;99.90;;;19.03;69.18;98017.13;5080385;28;20096;-77
2022/09/26 00:44:53;;;;;;;50.67;22.33;;;19.10;99.90;;;19.04;68.42;98009.69;5078488;28;20096;-77
2022/09/26 00:47:38;;;;;;;47.25;21.35;;;19.10;99.90;;;19.03;68.27;98005.31;5087257;28;20048;-78
2022/09/26 00:50:13;;;;;;;46.90;20.25;;;19.10;99.90;;;19.02;68.16;98015.53;5094981;28;20414;-78
2022/09/26 00:52:50;;;;;;;45.55;21.40;;;19.10;99.90;;;19.02;68.29;98014.72;5102297;27;20046;-78
2022/09/26 00:55:18;;;;;;;38.28;20.67;;;19.10;99.90;;;19.01;69.07;98013.13;5063933;27;20039;-78
2022/09/26 00:57:52;;;;;;;47.13;20.10;;;19.10;99.90;;;19.03;68.95;98013.56;5088551;27;20044;-78
2022/09/26 01:00:18;;;;;;;54.35;21.30;;;19.10;99.90;;;19.02;68.52;98001.78;5097164;27;20055;-78
2022/09/26 01:02:44;;;;;;;42.30;20.35;;;19.10;99.90;;;19.03;68.07;98003.41;5099009;27;20048;-78
2022/09/26 01:05:13;;;;;;;41.03;18.98;;;19.10;99.90;;;19.00;67.89;98004.06;5096768;27;20044;-77
2022/09/26 01:07:39;;;;;;;44.50;18.98;;;19.10;99.90;;;19.01;68.04;97996.66;5076731;28;20467;-77
2022/09/26 01:10:06;;;;;;;34.10;19.17;;;19.10;99.90;;;19.03;68.66;98002.56;5105805;27;20047;-78
2022/09/26 01:12:35;;;;;;;40.95;18.90;;;19.10;99.90;;;19.01;69.10;98002.16;5093242;27;20054;-77
2022/09/26 01:15:01;;;;;;;43.35;19.30;;;19.10;99.90;;;19.00;68.91;98000.53;5061502;28;20530;-78
2022/09/26 01:17:28;;;;;;;39.55;18.92;;;19.10;99.90;;;19.02;68.35;98003.72;5073653;28;20043;-78
2022/09/26 01:20:15;;;;;;;39.25;18.35;;;19.10;99.90;;;18.98;68.23;97998.16;5072844;27;20142;-77
2022/09/26 01:23:23;;;;;;;38.00;19.33;;;19.10;99.90;;;18.98;67.96;97998.16;5110477;27;20479;-77
2022/09/26 01:26:11;;;;;;;38.35;17.80;;;19.10;99.90;;;19.00;69.00;97998.56;5032085;28;20102;-77
2022/09/26 01:29:03;;;;;;;43.30;20.02;;;19.00;99.90;;;18.99;69.17;97996.97;5030027;28;20077;-77
2022/09/26 01:35:33;;;;;;;41.53;18.67;;;19.10;99.90;;;18.98;68.25;97989.06;5106990;28;20525;-78
2022/09/26 01:38:20;;;;;;;39.40;19.40;;;19.00;99.90;;;18.98;68.12;97994.56;5113960;27;20505;-78
2022/09/26 01:40:54;;;;;;;31.30;17.25;;;19.10;99.90;;;18.98;67.88;97992.66;5098109;27;20173;-78
2022/09/26 01:43:29;;;;;;;40.40;19.15;;;19.10;99.90;;;18.98;69.41;97978.09;5097786;28;20065;-78
2022/09/26 01:46:18;;;;;;;39.83;19.17;;;19.10;99.90;;;18.99;69.49;97976.94;5110900;27;20499;-78
2022/09/26 01:49:21;;;;;;;41.38;18.45;;;19.10;99.90;;;18.97;68.55;97973.75;5098336;27;20040;-77
2022/09/26 01:52:04;;;;;;;41.30;18.58;;;19.10;99.90;;;18.94;68.33;97969.75;5054286;27;20175;-77
2022/09/26 01:54:58;;;;;;;48.97;20.25;;;19.00;99.90;;;18.94;68.07;97967.00;5110199;27;20402;-77
2022/09/26 01:57:33;;;;;;;33.67;17.25;;;19.00;99.90;;;18.96;68.31;97958.41;5097798;27;20499;-77
2022/09/26 02:00:01;;;;;;;43.67;20.67;;;19.10;99.90;;;18.99;69.00;97952.22;5091121;27;20104;-77
2022/09/26 02:02:31;;;;;;;44.03;18.27;;;19.00;99.90;;;18.97;69.41;97947.06;5094225;27;20040;-77
2022/09/26 02:05:04;;;;;;;36.33;18.17;;;19.00;99.90;;;18.96;68.39;97945.47;5079145;27;21068;-77
2022/09/26 02:07:40;;;;;;;36.60;18.67;;;19.00;99.90;;;18.96;68.19;97936.44;5080408;27;20116;-77
2022/09/26 02:10:17;;;;;;;40.33;19.60;;;19.00;99.90;;;18.94;68.09;97944.22;5110093;27;20474;-76
2022/09/26 02:12:45;;;;;;;33.38;17.50;;;19.10;99.90;;;18.90;68.04;97940.56;5095810;27;20083;-77
2022/09/26 02:15:15;;;;;;;35.20;17.77;;;19.00;99.90;;;18.92;68.98;97944.56;5083738;28;20046;-77
2022/09/26 02:17:44;;;;;;;37.42;17.23;;;19.00;99.90;;;18.92;69.16;97950.06;5096459;28;20055;-77
2022/09/26 02:20:15;;;;;;;38.85;17.15;;;19.00;99.90;;;18.93;69.25;97953.59;5062830;28;20050;-77
2022/09/26 02:22:41;;;;;;;31.70;18.83;;;19.00;99.90;;;18.92;68.41;97960.25;5095128;28;20051;-77
2022/09/26 02:25:07;;;;;;;33.13;17.30;;;19.00;99.90;;;18.95;67.99;97951.31;5093743;28;20418;-77
2022/09/26 02:27:34;;;;;;;30.38;16.52;;;19.00;99.90;;;18.94;67.65;97953.25;5092659;28;20395;-77
2022/09/26 02:29:59;;;;;;;35.78;18.40;;;19.00;99.90;;;18.96;67.95;97947.44;5094748;28;20044;-78
2022/09/26 02:32:30;;;;;;;38.65;17.85;;;19.00;99.90;;;18.94;68.98;97944.22;5094284;28;20051;-78
2022/09/26 02:34:56;;;;;;;32.20;16.53;;;19.00;99.90;;;18.91;68.94;97936.69;5080734;28;20164;-78
2022/09/26 02:37:22;;;;;;;32.95;16.67;;;19.00;99.90;;;18.91;68.53;97934.72;5082755;28;20269;-78
2022/09/26 02:39:49;;;;;;;36.58;17.05;;;19.00;99.90;;;18.91;68.16;97942.19;5074806;28;20073;-78
2022/09/26 02:42:35;;;;;;;30.17;16.52;;;19.00;99.90;;;18.90;68.09;97937.81;5080208;28;20131;-78
2022/09/26 02:45:24;;;;;;;34.47;16.75;;;18.90;99.90;;;18.89;68.08;97939.78;5084408;27;20043;-78
2022/09/26 02:48:02;;;;;;;31.20;17.38;;;19.00;99.90;;;18.90;68.94;97935.06;5105770;27;20039;-78
2022/09/26 02:50:45;;;;;;;31.45;16.60;;;19.00;99.90;;;18.93;69.02;97934.38;5125878;27;20040;-78
2022/09/26 02:53:23;;;;;;;28.45;15.77;;;19.00;99.90;;;18.85;68.59;97939.69;5093348;27;20092;-78
2022/09/26 02:56:28;;;;;;;38.63;17.23;;;19.00;99.90;;;18.87;68.18;97931.06;5107308;27;20114;-78
2022/09/26 02:59:08;;;;;;;28.55;15.35;;;18.90;99.90;;;18.87;68.08;97926.38;5112439;27;20558;-78
2022/09/26 03:01:59;;;;;;;24.45;15.10;;;18.90;99.90;;;18.90;68.31;97924.06;5109080;27;20043;-78
2022/09/26 03:04:25;;;;;;;37.30;16.80;;;18.90;99.90;;;18.87;68.95;97917.34;5076993;28;20737;-78
2022/09/26 03:06:55;;;;;;;36.10;16.48;;;19.00;99.90;;;18.89;69.47;97912.28;5111902;27;20051;-78
2022/09/26 03:09:21;;;;;;;31.63;15.32;;;19.00;99.90;;;18.89;68.53;97911.50;5075003;28;20044;-78
2022/09/26 03:11:48;;;;;;;35.72;17.00;;;19.00;99.90;;;18.89;68.18;97908.75;5095926;28;20048;-78
2022/09/26 03:14:14;;;;;;;31.50;15.73;;;18.90;99.90;;;18.87;68.07;97900.84;5074219;28;20748;-78
2022/09/26 03:16:43;;;;;;;27.13;15.13;;;18.90;99.90;;;18.85;67.94;97903.97;5097816;28;20079;-79
2022/09/26 03:19:21;;;;;;;27.83;15.68;;;18.90;99.90;;;18.90;68.57;97907.59;5062872;28;20381;-78
2022/09/26 03:21:47;;;;;;;29.73;15.13;;;18.90;99.90;;;18.86;68.88;97902.00;5095718;27;20130;-78
2022/09/26 03:24:13;;;;;;;29.10;15.73;;;19.00;99.90;;;18.85;68.72;97895.72;5094369;27;20087;-78
2022/09/26 03:26:40;;;;;;;28.27;14.00;;;18.90;99.90;;;18.86;68.21;97894.56;5081500;27;20051;-78
2022/09/26 03:29:06;;;;;;;29.27;14.82;;;18.90;99.90;;;18.87;68.00;97887.91;5064435;27;20478;-78
2022/09/26 03:31:33;;;;;;;24.10;12.68;;;18.90;99.90;;;18.89;67.49;97884.03;5072712;28;20097;-78
2022/09/26 03:33:59;;;;;;;24.73;14.63;;;18.90;99.90;;;18.86;68.27;97889.06;5096716;27;20054;-78
2022/09/26 03:36:25;;;;;;;23.85;14.68;;;18.90;99.90;;;18.88;68.66;97883.22;5078219;27;20032;-78
2022/09/26 03:38:51;;;;;;;28.77;14.18;;;18.90;99.90;;;18.83;69.27;97873.28;5077670;28;20638;-78
2022/09/26 03:41:19;;;;;;;30.33;13.35;;;18.90;99.90;;;18.84;68.51;97880.38;5106543;27;20043;-78
2022/09/26 03:43:45;;;;;;;22.90;13.57;;;18.90;99.90;;;18.87;68.00;97876.91;5056805;28;20052;-79
2022/09/26 03:46:12;;;;;;;26.13;15.35;;;18.90;99.90;;;18.86;67.78;97880.81;5079908;28;20035;-78
2022/09/26 03:48:38;;;;;;;27.65;14.57;;;18.90;99.90;;;18.83;67.85;97884.28;5078006;28;20046;-78
2022/09/26 03:51:09;;;;;;;26.23;12.63;;;18.90;99.90;;;18.87;68.27;97887.91;5072277;28;20498;-78
2022/09/26 03:53:38;;;;;;;23.48;12.80;;;18.90;99.90;;;18.86;67.91;97877.28;5093989;27;20038;-78
2022/09/26 03:56:07;;;;;;;22.15;13.48;;;18.90;99.90;;;18.86;66.44;97878.06;5082092;27;20482;-78
2022/09/26 03:58:33;;;;;;;22.33;12.75;;;18.90;99.90;;;18.84;66.25;97874.88;5076591;27;20040;-78
2022/09/26 04:01:14;;;;;;;19.63;12.00;;;18.90;99.90;;;18.85;65.80;97883.91;5092232;28;20088;-78
2022/09/26 04:03:42;;;;;;;21.85;12.63;;;18.90;99.90;;;18.82;67.12;97879.13;5110238;27;20035;-76
2022/09/26 04:06:09;;;;;;;16.40;10.73;;;18.90;99.90;;;18.86;67.33;97880.03;5091285;27;20043;-75
2022/09/26 04:08:36;;;;;;;26.52;12.38;;;18.90;99.90;;;18.86;67.37;97877.28;5058064;27;20074;-75
2022/09/26 04:11:11;;;;;;;14.93;9.43;;;18.90;99.90;;;18.86;65.97;97874.53;5075424;28;20035;-76
2022/09/26 04:13:37;;;;;;;25.30;11.70;;;18.90;99.90;;;18.86;65.18;97872.56;5060117;27;20467;-75
2022/09/26 04:16:04;;;;;;;19.77;11.57;;;18.90;99.90;;;18.85;65.19;97870.16;5091544;28;20041;-75
2022/09/26 04:18:30;;;;;;;21.45;12.15;;;18.90;99.90;;;18.85;65.03;97873.75;5111676;27;20048;-75
2022/09/26 04:21:00;;;;;;;19.17;10.48;;;19.00;99.90;;;18.84;66.54;97872.13;5075683;27;20046;-75
2022/09/26 04:23:27;;;;;;;19.38;11.88;;;18.90;99.90;;;18.85;66.91;97868.25;5104655;27;20128;-77
2022/09/26 04:25:53;;;;;;;18.58;10.82;;;18.90;99.90;;;18.83;65.93;97864.25;5073010;27;20039;-78
2022/09/26 04:28:19;;;;;;;17.23;11.32;;;18.90;99.90;;;18.81;65.07;97867.34;5066074;28;20039;-78
2022/09/26 04:30:45;;;;;;;16.83;10.73;;;18.90;99.90;;;18.81;64.75;97869.28;5081926;27;20058;-78
2022/09/26 04:33:11;;;;;;;17.13;9.80;;;18.90;99.90;;;18.84;64.22;97860.34;5088740;27;20044;-78
2022/09/26 04:35:38;;;;;;;17.30;10.90;;;19.00;99.90;;;18.83;65.27;97865.03;5078032;27;20040;-79
2022/09/26 04:38:04;;;;;;;16.38;10.02;;;19.00;99.90;;;18.85;66.13;97856.44;5065821;27;20061;-78
2022/09/26 04:40:30;;;;;;;18.05;10.55;;;19.00;99.90;;;18.81;66.33;97853.59;5089242;28;20651;-78
2022/09/26 04:42:57;;;;;;;13.30;9.55;;;19.00;99.90;;;18.81;64.85;97856.34;5072650;27;20119;-78
2022/09/26 04:45:23;;;;;;;13.73;9.43;;;18.90;99.90;;;18.83;64.33;97851.31;5058895;27;20124;-79
2022/09/26 04:47:49;;;;;;;14.60;9.80;;;18.90;99.90;;;18.84;63.83;97855.63;5111639;27;20039;-78
2022/09/26 04:50:16;;;;;;;13.32;9.27;;;18.90;99.90;;;18.89;63.17;97849.09;5088631;27;20123;-78
2022/09/26 04:52:43;;;;;;;15.63;9.82;;;19.00;99.90;;;18.91;64.95;97857.00;5102592;27;20474;-78
2022/09/26 04:55:09;;;;;;;14.48;9.27;;;19.00;99.90;;;18.85;65.33;97851.75;5085870;27;20043;-78
2022/09/26 04:57:36;;;;;;;14.82;10.07;;;19.00;99.90;;;18.87;65.28;97843.16;5061698;27;20036;-78
2022/09/26 05:00:06;;;;;;;15.60;9.80;;;19.00;99.90;;;18.87;63.69;97849.44;5091596;28;20046;-82
2022/09/26 05:02:34;;;;;;;16.90;9.30;;;19.00;99.90;;;18.84;63.66;97850.16;5100409;27;20052;-82
2022/09/26 05:05:00;;;;;;;11.07;8.65;;;19.00;99.90;;;18.84;63.24;97841.09;5065226;28;20092;-83
2022/09/26 05:07:28;;;;;;;14.93;9.20;;;19.00;99.90;;;18.85;63.31;97840.78;5105204;27;20572;-82
2022/09/26 05:09:54;;;;;;;15.70;8.98;;;19.00;99.90;;;18.88;64.51;97839.25;5090444;28;20860;-82
2022/09/26 05:12:23;;;;;;;13.77;9.38;;;19.00;99.90;;;18.87;64.98;97834.91;5111150;27;20035;-82
2022/09/26 05:14:52;;;;;;;13.13;8.50;;;19.00;99.90;;;18.84;63.74;97841.09;5069074;27;20069;-82
2022/09/26 05:17:23;;;;;;;10.93;7.95;;;19.00;99.90;;;18.87;63.01;97834.91;5078920;27;20127;-81
2022/09/26 05:19:49;;;;;;;16.17;10.70;;;19.00;99.90;;;18.87;62.75;97849.44;5075142;28;20459;-81
2022/09/26 05:22:14;;;;;;;11.20;8.75;;;19.00;99.70;;;18.86;62.53;97836.84;5091283;27;20052;-82
2022/09/26 05:27:25;;;;;;;11.13;9.02;;;19.00;99.90;;;18.87;64.49;97837.66;5104882;28;20040;-81
2022/09/26 05:29:55;;;;;;;15.50;9.10;;;19.00;99.90;;;18.85;64.68;97834.44;5098419;28;20086;-82
2022/09/26 05:32:21;;;;;;;12.70;7.82;;;19.00;99.90;;;18.81;63.37;97833.56;5105353;28;20127;-82
2022/09/26 05:34:47;;;;;;;11.32;8.10;;;19.00;99.80;;;18.89;62.55;97829.84;5088917;28;20059;-82
2022/09/26 05:37:14;;;;;;;15.30;7.93;;;19.00;99.60;;;18.91;62.19;97821.28;5100838;28;20042;-80
2022/09/26 05:42:27;;;;;;;10.30;7.95;;;18.90;99.50;;;18.86;63.96;97825.88;5086412;28;20032;-78
2022/09/26 05:44:53;;;;;;;11.35;7.72;;;19.00;99.90;;;18.92;63.79;97828.34;5061131;28;20042;-78
2022/09/26 05:47:25;;;;;;;11.55;8.82;;;19.00;99.90;;;18.87;63.43;97827.44;5084220;28;20032;-78
2022/09/26 05:49:52;;;;;;;10.35;7.78;;;19.00;99.90;;;18.94;62.13;97837.06;5103079;28;20051;-78
2022/09/26 05:52:18;;;;;;;13.45;9.32;;;19.00;99.60;;;18.96;62.18;97826.50;5069312;28;20517;-78
2022/09/26 05:54:44;;;;;;;9.57;7.70;;;19.00;99.90;;;18.96;62.81;97832.00;5066514;28;20056;-78
2022/09/26 05:57:11;;;;;;;9.68;7.32;;;19.00;99.70;;;18.96;62.65;97832.81;5081973;28;20046;-78
2022/09/26 05:59:37;;;;;;;10.30;7.68;;;19.00;99.80;;;18.94;62.46;97826.06;5069319;28;20066;-78
2022/09/26 06:02:05;;;;;;;8.48;6.57;;;19.00;99.80;;;18.91;63.03;97835.81;5099031;28;20040;-78
2022/09/26 06:04:32;;;;;;;12.57;8.23;;;19.00;99.80;;;18.94;63.69;97837.06;5100066;28;20036;-78
2022/09/26 06:06:58;;;;;;;11.50;7.75;;;19.00;99.90;;;18.96;63.54;97832.81;5098462;28;20053;-78
2022/09/26 06:09:30;;;;;;;11.90;7.47;;;19.00;99.90;;;18.92;63.79;97828.34;5103616;28;20491;-78
2022/09/26 06:11:56;;;;;;;12.48;8.25;;;19.00;99.90;;;18.93;63.62;97832.69;5092845;28;20043;-78
2022/09/26 06:14:25;;;;;;;12.95;7.07;;;19.00;99.90;;;18.96;63.62;97829.25;5090847;28;20036;-78
2022/09/26 06:16:51;;;;;;;11.15;7.65;;;19.00;99.90;;;18.93;63.52;97829.94;5083868;28;20067;-78
2022/09/26 06:19:17;;;;;;;10.32;7.60;;;19.00;99.90;;;18.92;63.93;97831.09;5088525;28;20933;-78
2022/09/26 06:21:43;;;;;;;12.85;7.40;;;19.00;99.90;;;18.95;64.04;97827.66;5082965;28;20484;-78
2022/09/26 06:24:09;;;;;;;14.73;7.70;;;19.10;99.90;;;18.95;64.27;97831.19;5085216;28;20637;-78
2022/09/26 06:26:36;;;;;;;12.48;6.50;;;19.10;99.90;;;18.97;63.93;97825.34;5084749;28;20596;-78
2022/09/26 06:29:02;;;;;;;8.43;7.28;;;19.00;99.90;;;18.97;63.45;97817.09;5108019;27;21116;-78
2022/09/26 06:31:29;;;;;;;11.15;7.35;;;19.10;99.90;;;18.97;63.60;97823.41;5088532;28;20054;-78
2022/09/26 06:33:55;;;;;;;11.32;8.68;;;19.10;99.90;;;18.99;63.38;97821.09;5087946;28;20046;-78
2022/09/26 06:36:22;;;;;;;9.43;7.30;;;19.00;99.90;;;18.98;63.95;97824.19;5100587;27;20051;-78
2022/09/26 06:38:48;;;;;;;11.15;7.80;;;19.10;99.90;;;19.01;64.07;97821.56;5072265;28;20044;-78
2022/09/26 06:41:15;;;;;;;9.70;7.20;;;19.10;99.90;;;19.02;63.85;97819.59;5068230;28;20540;-78
2022/09/26 06:43:44;;;;;;;7.22;6.15;;;19.10;99.90;;;18.98;63.64;97816.75;5104031;27;20146;-78
2022/09/26 06:46:12;;;;;;;9.57;6.88;;;19.10;99.90;;;18.99;63.45;97817.56;5089733;27;20070;-78
2022/09/26 06:48:38;;;;;;;10.68;7.82;;;19.10;99.90;;;19.00;63.60;97821.88;5071253;28;20048;-78
2022/09/26 06:51:04;;;;;;;11.10;7.72;;;19.10;99.90;;;19.01;63.41;97815.25;5087006;28;20050;-78
2022/09/26 06:53:30;;;;;;;13.13;8.63;;;19.10;99.90;;;19.01;64.19;97815.25;5087112;28;20063;-78
2022/09/26 06:56:01;;;;;;;7.95;6.75;;;19.10;99.90;;;19.03;64.07;97816.50;5111364;27;20044;-78
2022/09/26 06:58:28;;;;;;;9.55;7.68;;;19.10;99.90;;;19.03;63.76;97810.19;5089624;28;20471;-78
2022/09/26 07:00:55;;;;;;;8.95;6.28;;;19.10;99.90;;;19.03;63.50;97810.19;5087806;28;20418;-78
2022/09/26 07:03:24;;;;;;;8.27;6.70;;;19.10;99.90;;;19.07;63.31;97811.88;5060216;27;20036;-78
2022/09/26 07:05:53;;;;;;;7.70;6.30;;;19.10;99.90;;;19.07;63.36;97814.63;5088405;27;20176;-78
2022/09/26 07:08:19;;;;;;;10.20;7.57;;;19.10;99.90;;;19.07;63.73;97813.84;5090495;28;20194;-78
2022/09/26 07:10:46;;;;;;;8.27;6.40;;;19.10;99.90;;;19.10;63.76;97813.13;5085918;28;20378;-78
2022/09/26 07:13:14;;;;;;;14.70;7.20;;;19.20;99.90;;;19.10;64.03;97815.88;5089313;28;20070;-78
2022/09/26 07:15:42;;;;;;;8.80;7.40;;;19.20;99.90;;;19.10;63.36;97813.13;5075756;28;20379;-78
2022/09/26 07:18:09;;;;;;;9.38;6.25;;;19.20;99.90;;;19.12;63.08;97815.53;5072299;27;20138;-78
2022/09/26 07:20:39;;;;;;;12.10;7.43;;;19.20;99.90;;;19.12;63.18;97815.53;5070242;28;20064;-78
2022/09/26 07:23:07;;;;;;;9.85;6.80;;;19.20;99.90;;;19.11;63.19;97809.25;5105182;27;20055;-78
2022/09/26 07:25:33;;;;;;;8.38;6.50;;;19.20;99.90;;;19.13;63.70;97806.13;5073199;27;20483;-78
2022/09/26 07:28:00;;;;;;;9.10;6.13;;;19.20;99.90;;;19.11;63.89;97811.16;5090705;28;20048;-78
2022/09/26 07:30:27;;;;;;;9.40;6.53;;;19.20;99.90;;;19.11;63.59;97801.00;5087715;28;20371;-78
2022/09/26 07:33:02;;;;;;;9.57;7.32;;;19.20;99.90;;;19.12;63.29;97807.28;5071352;28;20083;-78
2022/09/26 07:35:33;;;;;;;7.53;6.40;;;19.20;99.90;;;19.13;63.24;97812.41;5072817;28;20597;-78
2022/09/26 07:37:59;;;;;;;6.55;5.40;;;19.20;99.90;;;19.13;63.26;97803.38;5072904;28;20126;-78
2022/09/26 07:40:25;;;;;;;11.50;7.68;;;19.20;99.90;;;19.16;63.11;97803.47;5087681;28;20068;-78
2022/09/26 07:42:52;;;;;;;10.45;6.45;;;19.20;99.90;;;19.18;63.41;97803.91;5086008;28;20047;-78
2022/09/26 07:50:10;;;;;;;8.95;6.85;;;19.30;99.90;;;19.16;63.73;97806.22;5087767;28;20483;-78
2022/09/26 07:50:58;;;;;;;9.82;6.97;;;19.30;99.90;;;19.18;63.13;97803.09;5088829;27;20077;-78
2022/09/26 07:53:25;;;;;;;11.02;6.85;;;19.30;99.80;;;19.21;62.76;97802.38;5070336;28;20048;-78
2022/09/26 07:56:04;;;;;;;9.55;6.57;;;19.30;99.70;;;19.23;62.70;97808.34;5071735;28;20085;-78
2022/09/26 07:58:32;;;;;;;10.18;6.28;;;19.30;99.70;;;19.24;63.22;97809.94;5084199;27;20119;-78
2022/09/26 08:00:58;;;;;;;8.35;6.75;;;19.30;99.90;;;19.25;63.29;97809.56;5051963;28;20075;-78
2022/09/26 08:03:27;;;;;;;7.80;6.38;;;19.40;99.90;;;19.24;62.94;97812.69;5102698;27;20040;-78
2022/09/26 08:05:55;;;;;;;8.88;5.85;;;19.30;99.70;;;19.23;62.81;97816.59;5104987;27;20494;-78
2022/09/26 08:08:21;;;;;;;8.73;6.93;;;19.30;99.70;;;19.23;62.77;97811.91;5087216;28;20035;-78
2022/09/26 08:10:47;;;;;;;11.73;6.65;;;19.30;99.70;;;19.22;62.71;97815.00;5085965;28;20047;-78
2022/09/26 08:13:13;;;;;;;8.57;6.75;;;19.30;99.70;;;19.24;63.11;97809.94;5089002;28;20049;-78
2022/09/26 08:15:39;;;;;;;10.65;6.13;;;19.40;99.80;;;19.25;63.31;97809.56;5088269;28;20035;-78
2022/09/26 08:18:05;;;;;;;6.97;5.68;;;19.40;99.90;;;19.23;63.38;97805.59;5086858;28;20035;-78
2022/09/26 08:20:32;;;;;;;10.05;6.97;;;19.40;99.90;;;19.24;62.82;97808.00;5069236;28;20062;-78
2022/09/26 08:22:59;;;;;;;7.50;6.68;;;19.40;99.80;;;19.24;62.62;97808.00;5103885;27;20063;-78
2022/09/26 08:25:25;;;;;;;9.15;6.60;;;19.30;99.70;;;19.25;62.51;97803.28;5070674;28;20041;-78
2022/09/26 08:27:52;;;;;;;10.02;6.57;;;19.40;99.80;;;19.25;62.52;97809.56;5101344;28;20127;-78
2022/09/26 08:30:18;;;;;;;7.45;6.15;;;19.40;99.80;;;19.28;63.08;97813.56;5102284;27;20147;-78
2022/09/26 08:32:57;;;;;;;7.85;6.65;;;19.40;99.80;;;19.29;62.97;97812.44;5067205;28;20548;-78
2022/09/26 08:35:25;;;;;;;9.88;6.38;;;19.40;99.80;;;19.30;62.70;97812.06;5084386;27;20040;-78
2022/09/26 08:37:51;;;;;;;7.63;6.03;;;19.40;99.80;;;19.33;62.33;97799.56;5075030;28;20073;-78
2022/09/26 08:40:17;;;;;;;9.45;6.68;;;19.40;99.70;;;19.35;62.22;97796.47;5101446;27;20046;-78
2022/09/26 08:43:05;;;;;;;7.78;6.63;;;19.40;99.70;;;19.34;62.25;97805.88;5071465;28;20097;-78
2022/09/26 08:49:16;;;;;;;9.52;6.10;;;19.40;99.80;;;19.32;62.87;97808.19;5091047;27;20076;-78
2022/09/26 08:51:48;;;;;;;8.48;6.82;;;19.40;99.80;;;19.32;62.63;97814.47;5100366;27;20048;-78
2022/09/26 08:54:16;;;;;;;;;;;19.40;99.80;;;19.34;62.36;97798.41;5072174;28;20648;-78
2022/09/26 08:56:48;;;;;;;7.43;5.68;;;19.50;99.70;;;19.35;62.33;97808.25;5086563;27;20290;-78
2022/09/26 08:59:46;;;;;;;8.38;6.82;;;19.50;99.70;;;19.35;62.10;97802.75;5089857;27;20130;-78
2022/09/26 09:02:36;;;;;;;9.10;6.80;;;19.50;99.60;;;19.41;62.49;97800.53;5068544;27;20055;-78
2022/09/26 09:05:18;;;;;;;9.02;5.53;;;19.50;99.80;;;19.41;62.47;97795.84;5115283;27;20035;-78
2022/09/26 09:07:48;;;;;;;8.13;6.07;;;19.50;99.80;;;19.39;62.40;97808.34;5072657;28;20215;-78
2022/09/26 09:10:21;;;;;;;7.38;5.70;;;19.50;99.70;;;19.39;61.88;97800.91;5090454;27;20116;-78
2022/09/26 09:13:24;;;;;;;8.18;5.70;;;19.50;99.60;;;19.36;62.32;97800.78;5096060;27;20437;-78
2022/09/26 09:16:20;;;;;;;9.63;6.75;;;19.50;99.50;;;19.35;62.02;97802.75;5097801;28;20063;-78
2022/09/26 09:18:55;;;;;;;8.35;6.38;;;19.50;99.50;;;19.38;62.52;97802.03;5071969;28;20387;-78
2022/09/26 09:21:37;;;;;;;8.43;5.90;;;19.50;99.70;;;19.38;62.30;97804.00;5083358;27;20566;-78
2022/09/26 09:24:08;;;;;;;6.55;5.70;;;19.50;99.70;;;19.37;62.37;97799.66;5087525;28;20035;-79
2022/09/26 09:26:55;;;;;;;10.25;7.00;;;19.60;99.60;;;19.38;62.40;97801.25;5105664;27;20067;-78
2022/09/26 09:29:40;;;;;;;9.68;6.25;;;19.60;99.60;;;19.38;62.19;97801.25;5099780;28;20103;-78
2022/09/26 09:32:09;;;;;;;7.78;5.88;;;19.60;99.50;;;19.37;62.22;97813.41;5086108;28;20046;-78
2022/09/26 09:34:39;;;;;;;6.38;5.22;;;19.50;99.40;;;19.39;62.43;97809.16;5084773;28;20050;-78
2022/09/26 09:37:23;;;;;;;8.38;5.88;;;19.60;99.70;;;19.42;62.44;97811.19;5086240;28;20086;-79
2022/09/26 09:39:49;;;;;;;9.20;6.90;;;19.60;99.70;;;19.49;64.95;97808.59;5068471;28;20071;-78
2022/09/26 09:42:24;;;;;;;9.82;7.32;;;19.60;99.90;;;19.48;64.21;97803.44;5055973;28;20076;-78
2022/09/26 09:45:25;;;;;;;7.43;6.35;;;19.60;99.90;;;19.50;63.03;97799.19;5087948;28;20550;-78
2022/09/26 09:47:51;;;;;;;8.55;6.30;;;19.60;99.90;;;19.50;63.14;97801.16;5047392;28;20146;-78
2022/09/26 09:51:16;;;;;;;8.90;6.00;;;19.70;99.90;;;19.54;63.18;97796.53;5054645;28;20039;-78
2022/09/26 09:54:01;;;;;;;7.40;5.68;;;19.70;99.90;;;19.55;62.33;97800.88;5042359;28;20397;-78
2022/09/26 09:56:45;;;;;;;12.55;7.00;;;19.70;99.70;;;19.59;62.14;97796.25;5093959;28;20055;-78
2022/09/26 09:59:32;;;;;;;7.25;6.13;;;19.70;99.70;;;19.63;61.61;97799.09;5096277;27;20040;-78
2022/09/26 10:02:28;;;;;;;7.88;5.95;;;19.70;99.60;;;19.66;61.54;97796.41;5104298;27;20079;-78
2022/09/26 10:05:15;;;;;;;7.68;5.95;;;19.80;99.50;;;19.68;61.65;97798.84;5106691;27;20110;-78
2022/09/26 10:07:43;;;;;;;7.90;6.25;;;19.80;99.50;;;19.71;61.62;97798.91;5106426;27;20119;-78
2022/09/26 10:10:12;;;;;;;8.32;5.57;;;19.70;99.50;;;19.75;61.28;97795.47;5077006;27;20524;-79
2022/09/26 10:12:39;;;;;;;7.55;5.75;;;19.80;99.50;;;19.78;60.83;97792.00;5068530;28;20055;-79
2022/09/26 10:15:18;;;;;;;7.07;6.20;;;19.80;99.40;;;19.83;60.68;97799.97;5105866;27;20122;-78
2022/09/26 10:18:20;;;;;;;6.53;5.55;;;19.80;99.30;;;19.86;60.15;97782.72;5078725;28;20101;-78
2022/09/26 10:21:19;;;;;;;9.00;6.97;;;19.90;99.30;;;19.93;60.12;97788.38;5015619;28;20345;-78
2022/09/26 10:23:48;;;;;;;9.30;6.20;;;20.00;99.20;;;19.97;60.07;97788.47;4963929;28;20049;-78
2022/09/26 10:26:14;;;;;;;10.77;6.28;;;19.90;99.30;;;20.01;60.14;97787.38;4984227;28;20115;-78
2022/09/26 10:28:56;;;;;;;7.97;5.78;;;20.00;99.40;;;20.04;59.84;97791.38;5012569;28;20088;-78
2022/09/26 10:31:30;;;;;;;6.80;5.28;;;20.00;99.20;;;20.04;59.26;97794.91;5010999;28;20514;-78
2022/09/26 10:34:20;;;;;;;7.65;5.53;;;20.00;99.10;;;20.03;59.25;97779.56;5014932;28;20045;-78
2022/09/26 10:36:46;;;;;;;6.00;5.40;;;20.10;99.10;;;20.07;59.42;97777.66;4985122;28;20059;-79
2022/09/26 10:42:17;;;;;;;7.05;5.70;;;20.00;99.10;;;20.08;59.39;97775.72;5016531;28;20132;-79
2022/09/26 10:44:45;;;;;;;8.77;5.95;;;20.00;99.20;;;20.05;59.28;97774.50;5018285;28;20060;-79
2022/09/26 10:47:24;;;;;;;6.80;5.20;;;20.00;99.10;;;20.10;59.22;97774.22;4999941;28;20049;-79
2022/09/26 10:50:22;;;;;;;6.43;5.28;;;20.00;99.10;;;20.11;59.20;97778.56;4996449;28;20635;-79